sensor_id;sensor_type;location;lat;lon;timestamp;temperature;humidity
423;DHT22;198;48.752;9.180;2024-02-15T00:01:30;11.90;99.90
423;DHT22;198;48.752;9.180;2024-02-15T00:03:55;11.90;99.90
423;DHT22;198;48.752;9.180;2024-02-15T00:06:21;11.90;99.90
423;DHT22;198;48.752;9.180;2024-02-15T00:08:46;11.90;99.90
423;DHT22;198;48.752;9.180;2024-02-15T00:11:12;11.90;99.90
423;DHT22;198;48.752;9.180;2024-02-15T00:13:39;11.90;99.90
423;DHT22;198;48.752;9.180;2024-02-15T00:16:04;11.90;99.90
423;DHT22;198;48.752;9.180;2024-02-15T00:18:31;11.90;99.90
423;DHT22;198;48.752;9.180;2024-02-15T00:20:57;11.90;99.90
423;DHT22;198;48.752;9.180;2024-02-15T00:23:22;11.90;99.90
423;DHT22;198;48.752;9.180;2024-02-15T00:25:48;11.90;99.90
423;DHT22;198;48.752;9.180;2024-02-15T00:28:15;11.90;99.90
423;DHT22;198;48.752;9.180;2024-02-15T00:30:40;12.00;99.90
423;DHT22;198;48.752;9.180;2024-02-15T00:33:06;12.00;99.90
423;DHT22;198;48.752;9.180;2024-02-15T00:35:32;12.00;99.90
423;DHT22;198;48.752;9.180;2024-02-15T00:37:58;12.00;99.90
423;DHT22;198;48.752;9.180;2024-02-15T00:40:23;12.00;99.90
423;DHT22;198;48.752;9.180;2024-02-15T00:42:49;12.00;99.90
423;DHT22;198;48.752;9.180;2024-02-15T00:45:14;11.90;99.90
423;DHT22;198;48.752;9.180;2024-02-15T00:47:40;11.80;99.90
423;DHT22;198;48.752;9.180;2024-02-15T00:50:10;11.80;99.90
423;DHT22;198;48.752;9.180;2024-02-15T00:52:35;11.80;99.90
423;DHT22;198;48.752;9.180;2024-02-15T00:55:01;11.80;99.90
423;DHT22;198;48.752;9.180;2024-02-15T00:57:27;11.80;99.90
423;DHT22;198;48.752;9.180;2024-02-15T00:59:52;11.70;99.90
423;DHT22;198;48.752;9.180;2024-02-15T01:02:18;11.70;99.90
423;DHT22;198;48.752;9.180;2024-02-15T01:04:43;11.60;99.90
423;DHT22;198;48.752;9.180;2024-02-15T01:07:10;11.60;99.90
423;DHT22;198;48.752;9.180;2024-02-15T01:09:36;11.50;99.90
423;DHT22;198;48.752;9.180;2024-02-15T01:12:01;11.50;99.90
423;DHT22;198;48.752;9.180;2024-02-15T01:14:29;11.40;99.90
423;DHT22;198;48.752;9.180;2024-02-15T01:16:56;11.40;99.90
423;DHT22;198;48.752;9.180;2024-02-15T01:19:21;11.50;99.90
423;DHT22;198;48.752;9.180;2024-02-15T01:21:47;11.50;99.90
423;DHT22;198;48.752;9.180;2024-02-15T01:24:12;11.50;99.90
423;DHT22;198;48.752;9.180;2024-02-15T01:26:38;11.60;99.90
423;DHT22;198;48.752;9.180;2024-02-15T01:29:03;11.60;99.90
423;DHT22;198;48.752;9.180;2024-02-15T01:31:29;11.60;99.90
423;DHT22;198;48.752;9.180;2024-02-15T01:33:55;11.50;99.90
423;DHT22;198;48.752;9.180;2024-02-15T01:36:20;11.50;99.90
423;DHT22;198;48.752;9.180;2024-02-15T01:38:46;11.40;99.90
423;DHT22;198;48.752;9.180;2024-02-15T01:41:11;11.40;99.90
423;DHT22;198;48.752;9.180;2024-02-15T01:43:37;11.30;99.90
423;DHT22;198;48.752;9.180;2024-02-15T01:46:07;11.20;99.90
423;DHT22;198;48.752;9.180;2024-02-15T01:48:35;11.10;99.90
423;DHT22;198;48.752;9.180;2024-02-15T01:51:01;11.00;99.90
423;DHT22;198;48.752;9.180;2024-02-15T01:53:27;10.80;99.90
423;DHT22;198;48.752;9.180;2024-02-15T01:55:54;10.70;99.90
423;DHT22;198;48.752;9.180;2024-02-15T01:58:23;10.60;99.90
423;DHT22;198;48.752;9.180;2024-02-15T02:00:49;10.50;99.90
423;DHT22;198;48.752;9.180;2024-02-15T02:03:15;10.40;99.90
423;DHT22;198;48.752;9.180;2024-02-15T02:05:41;10.30;99.90
423;DHT22;198;48.752;9.180;2024-02-15T02:08:07;10.20;99.90
423;DHT22;198;48.752;9.180;2024-02-15T02:10:36;10.10;99.90
423;DHT22;198;48.752;9.180;2024-02-15T02:13:02;10.00;99.90
423;DHT22;198;48.752;9.180;2024-02-15T02:15:28;10.00;99.90
423;DHT22;198;48.752;9.180;2024-02-15T02:17:57;9.90;99.90
423;DHT22;198;48.752;9.180;2024-02-15T02:20:25;9.90;99.90
423;DHT22;198;48.752;9.180;2024-02-15T02:22:56;9.80;99.90
423;DHT22;198;48.752;9.180;2024-02-15T02:25:25;9.80;99.90
423;DHT22;198;48.752;9.180;2024-02-15T02:27:55;9.70;99.90
423;DHT22;198;48.752;9.180;2024-02-15T02:30:21;9.70;99.90
423;DHT22;198;48.752;9.180;2024-02-15T02:32:47;9.60;99.90
423;DHT22;198;48.752;9.180;2024-02-15T02:35:13;9.60;99.90
423;DHT22;198;48.752;9.180;2024-02-15T02:37:41;9.60;99.90
423;DHT22;198;48.752;9.180;2024-02-15T02:40:08;9.50;99.90
423;DHT22;198;48.752;9.180;2024-02-15T02:42:50;9.50;99.90
423;DHT22;198;48.752;9.180;2024-02-15T02:45:19;9.40;99.90
423;DHT22;198;48.752;9.180;2024-02-15T02:47:46;9.40;99.90
423;DHT22;198;48.752;9.180;2024-02-15T02:50:12;9.40;99.90
423;DHT22;198;48.752;9.180;2024-02-15T02:52:38;9.30;99.90
423;DHT22;198;48.752;9.180;2024-02-15T02:55:05;9.30;99.90
423;DHT22;198;48.752;9.180;2024-02-15T02:57:36;9.20;99.90
423;DHT22;198;48.752;9.180;2024-02-15T03:00:09;9.20;99.90
423;DHT22;198;48.752;9.180;2024-02-15T03:02:38;9.20;99.90
423;DHT22;198;48.752;9.180;2024-02-15T03:05:04;9.20;99.90
423;DHT22;198;48.752;9.180;2024-02-15T03:07:32;9.20;99.90
423;DHT22;198;48.752;9.180;2024-02-15T03:09:58;9.10;99.90
423;DHT22;198;48.752;9.180;2024-02-15T03:12:23;9.10;99.90
423;DHT22;198;48.752;9.180;2024-02-15T03:14:52;9.10;99.90
423;DHT22;198;48.752;9.180;2024-02-15T03:17:17;9.00;99.90
423;DHT22;198;48.752;9.180;2024-02-15T03:19:43;9.00;99.90
423;DHT22;198;48.752;9.180;2024-02-15T03:22:08;9.00;99.90
423;DHT22;198;48.752;9.180;2024-02-15T03:24:34;9.00;99.90
423;DHT22;198;48.752;9.180;2024-02-15T03:26:59;8.90;99.90
423;DHT22;198;48.752;9.180;2024-02-15T03:29:25;8.90;99.90
423;DHT22;198;48.752;9.180;2024-02-15T03:31:50;8.80;99.90
423;DHT22;198;48.752;9.180;2024-02-15T03:34:18;8.80;99.90
423;DHT22;198;48.752;9.180;2024-02-15T03:36:47;8.80;99.90
423;DHT22;198;48.752;9.180;2024-02-15T03:39:13;8.80;99.90
423;DHT22;198;48.752;9.180;2024-02-15T03:41:38;8.80;99.90
423;DHT22;198;48.752;9.180;2024-02-15T03:44:04;8.80;99.90
423;DHT22;198;48.752;9.180;2024-02-15T03:46:29;8.80;99.90
423;DHT22;198;48.752;9.180;2024-02-15T03:48:55;8.80;99.90
423;DHT22;198;48.752;9.180;2024-02-15T03:51:24;8.80;99.90
423;DHT22;198;48.752;9.180;2024-02-15T03:53:50;8.80;99.90
423;DHT22;198;48.752;9.180;2024-02-15T03:56:17;8.80;99.90
423;DHT22;198;48.752;9.180;2024-02-15T03:58:43;8.70;99.90
423;DHT22;198;48.752;9.180;2024-02-15T04:01:08;8.80;99.90
423;DHT22;198;48.752;9.180;2024-02-15T04:03:35;8.80;99.90
423;DHT22;198;48.752;9.180;2024-02-15T04:06:01;8.80;99.90
423;DHT22;198;48.752;9.180;2024-02-15T04:08:26;8.90;99.90
423;DHT22;198;48.752;9.180;2024-02-15T04:10:52;9.10;99.90
423;DHT22;198;48.752;9.180;2024-02-15T04:13:18;9.20;99.90
423;DHT22;198;48.752;9.180;2024-02-15T04:15:44;9.30;99.90
423;DHT22;198;48.752;9.180;2024-02-15T04:18:12;9.40;99.90
423;DHT22;198;48.752;9.180;2024-02-15T04:20:39;9.50;99.90
423;DHT22;198;48.752;9.180;2024-02-15T04:23:10;9.60;99.90
423;DHT22;198;48.752;9.180;2024-02-15T04:25:36;9.70;99.90
423;DHT22;198;48.752;9.180;2024-02-15T04:28:02;9.70;99.90
423;DHT22;198;48.752;9.180;2024-02-15T04:30:29;9.80;99.90
423;DHT22;198;48.752;9.180;2024-02-15T04:32:55;9.80;99.90
423;DHT22;198;48.752;9.180;2024-02-15T04:35:21;9.80;99.90
423;DHT22;198;48.752;9.180;2024-02-15T04:37:47;10.00;99.90
423;DHT22;198;48.752;9.180;2024-02-15T04:40:15;10.00;99.90
423;DHT22;198;48.752;9.180;2024-02-15T04:42:41;10.10;99.90
423;DHT22;198;48.752;9.180;2024-02-15T04:45:09;10.10;99.90
423;DHT22;198;48.752;9.180;2024-02-15T04:47:36;10.10;99.90
423;DHT22;198;48.752;9.180;2024-02-15T04:50:02;10.20;99.90
423;DHT22;198;48.752;9.180;2024-02-15T04:52:29;10.20;99.90
423;DHT22;198;48.752;9.180;2024-02-15T04:54:54;10.10;99.90
423;DHT22;198;48.752;9.180;2024-02-15T04:57:20;10.20;99.90
423;DHT22;198;48.752;9.180;2024-02-15T04:59:47;10.20;99.90
423;DHT22;198;48.752;9.180;2024-02-15T05:02:14;10.20;99.90
423;DHT22;198;48.752;9.180;2024-02-15T05:04:39;10.20;99.90
423;DHT22;198;48.752;9.180;2024-02-15T05:07:08;10.20;99.90
423;DHT22;198;48.752;9.180;2024-02-15T05:09:33;10.10;99.90
423;DHT22;198;48.752;9.180;2024-02-15T05:12:00;10.20;99.90
423;DHT22;198;48.752;9.180;2024-02-15T05:14:28;10.20;99.90
423;DHT22;198;48.752;9.180;2024-02-15T05:16:53;10.20;99.90
423;DHT22;198;48.752;9.180;2024-02-15T05:19:18;10.20;99.90
423;DHT22;198;48.752;9.180;2024-02-15T05:21:45;10.20;99.90
423;DHT22;198;48.752;9.180;2024-02-15T05:24:15;10.20;99.90
423;DHT22;198;48.752;9.180;2024-02-15T05:26:44;10.20;99.90
423;DHT22;198;48.752;9.180;2024-02-15T05:29:14;10.20;99.90
423;DHT22;198;48.752;9.180;2024-02-15T05:31:40;10.20;99.90
423;DHT22;198;48.752;9.180;2024-02-15T05:34:06;10.20;99.90
423;DHT22;198;48.752;9.180;2024-02-15T05:36:37;10.20;99.90
423;DHT22;198;48.752;9.180;2024-02-15T05:39:03;10.20;99.90
423;DHT22;198;48.752;9.180;2024-02-15T05:41:30;10.20;99.90
423;DHT22;198;48.752;9.180;2024-02-15T05:43:57;10.20;99.90
423;DHT22;198;48.752;9.180;2024-02-15T05:46:23;10.20;99.90
423;DHT22;198;48.752;9.180;2024-02-15T05:48:49;10.10;99.90
423;DHT22;198;48.752;9.180;2024-02-15T05:51:16;10.10;99.90
423;DHT22;198;48.752;9.180;2024-02-15T05:53:43;10.10;99.90
423;DHT22;198;48.752;9.180;2024-02-15T05:56:09;10.00;99.90
423;DHT22;198;48.752;9.180;2024-02-15T05:58:39;10.00;99.90
423;DHT22;198;48.752;9.180;2024-02-15T06:01:07;10.00;99.90
423;DHT22;198;48.752;9.180;2024-02-15T06:03:38;10.00;99.90
423;DHT22;198;48.752;9.180;2024-02-15T06:06:05;10.00;99.90
423;DHT22;198;48.752;9.180;2024-02-15T06:08:34;10.00;99.90
423;DHT22;198;48.752;9.180;2024-02-15T06:11:00;9.90;99.90
423;DHT22;198;48.752;9.180;2024-02-15T06:13:31;9.90;99.90
423;DHT22;198;48.752;9.180;2024-02-15T06:15:57;9.90;99.90
423;DHT22;198;48.752;9.180;2024-02-15T06:18:28;9.90;99.90
423;DHT22;198;48.752;9.180;2024-02-15T06:20:55;9.90;99.90
423;DHT22;198;48.752;9.180;2024-02-15T06:23:23;9.90;99.90
423;DHT22;198;48.752;9.180;2024-02-15T06:25:51;9.90;99.90
423;DHT22;198;48.752;9.180;2024-02-15T06:28:18;9.80;99.90
423;DHT22;198;48.752;9.180;2024-02-15T06:31:03;9.80;99.90
423;DHT22;198;48.752;9.180;2024-02-15T06:33:47;9.80;99.90
423;DHT22;198;48.752;9.180;2024-02-15T06:36:31;9.70;99.90
423;DHT22;198;48.752;9.180;2024-02-15T06:39:15;9.70;99.90
423;DHT22;198;48.752;9.180;2024-02-15T06:41:59;9.70;99.90
423;DHT22;198;48.752;9.180;2024-02-15T06:44:26;9.70;99.90
423;DHT22;198;48.752;9.180;2024-02-15T06:46:52;9.60;99.90
423;DHT22;198;48.752;9.180;2024-02-15T06:49:17;9.60;99.90
423;DHT22;198;48.752;9.180;2024-02-15T06:51:43;9.50;99.90
423;DHT22;198;48.752;9.180;2024-02-15T06:54:09;9.50;99.90
423;DHT22;198;48.752;9.180;2024-02-15T06:56:37;9.60;99.90
423;DHT22;198;48.752;9.180;2024-02-15T06:59:03;9.60;99.90
423;DHT22;198;48.752;9.180;2024-02-15T07:01:29;9.60;99.90
423;DHT22;198;48.752;9.180;2024-02-15T07:03:54;9.60;99.90
423;DHT22;198;48.752;9.180;2024-02-15T07:06:21;9.60;99.90
423;DHT22;198;48.752;9.180;2024-02-15T07:08:47;9.60;99.90
423;DHT22;198;48.752;9.180;2024-02-15T07:11:13;9.60;99.90
423;DHT22;198;48.752;9.180;2024-02-15T07:13:38;9.70;99.90
423;DHT22;198;48.752;9.180;2024-02-15T07:16:10;9.70;99.90
423;DHT22;198;48.752;9.180;2024-02-15T07:18:36;9.80;99.90
423;DHT22;198;48.752;9.180;2024-02-15T07:21:02;9.90;99.90
423;DHT22;198;48.752;9.180;2024-02-15T07:23:33;9.90;99.90
423;DHT22;198;48.752;9.180;2024-02-15T07:25:59;10.00;99.90
423;DHT22;198;48.752;9.180;2024-02-15T07:28:25;10.10;99.90
423;DHT22;198;48.752;9.180;2024-02-15T07:30:54;10.20;99.90
423;DHT22;198;48.752;9.180;2024-02-15T07:33:21;10.30;99.90
423;DHT22;198;48.752;9.180;2024-02-15T07:35:48;10.50;99.90
423;DHT22;198;48.752;9.180;2024-02-15T07:38:16;10.70;99.90
423;DHT22;198;48.752;9.180;2024-02-15T07:40:42;10.80;99.90
423;DHT22;198;48.752;9.180;2024-02-15T07:43:08;11.00;99.90
423;DHT22;198;48.752;9.180;2024-02-15T07:45:33;11.20;99.90
423;DHT22;198;48.752;9.180;2024-02-15T07:48:03;11.40;99.90
423;DHT22;198;48.752;9.180;2024-02-15T07:50:30;11.60;99.90
423;DHT22;198;48.752;9.180;2024-02-15T07:52:56;11.80;99.90
423;DHT22;198;48.752;9.180;2024-02-15T07:55:21;12.10;99.90
423;DHT22;198;48.752;9.180;2024-02-15T07:57:50;12.30;99.90
423;DHT22;198;48.752;9.180;2024-02-15T08:00:15;12.50;99.90
423;DHT22;198;48.752;9.180;2024-02-15T08:02:42;12.70;99.90
423;DHT22;198;48.752;9.180;2024-02-15T08:05:10;12.80;99.90
423;DHT22;198;48.752;9.180;2024-02-15T08:07:42;13.00;99.90
423;DHT22;198;48.752;9.180;2024-02-15T08:10:12;13.20;99.90
423;DHT22;198;48.752;9.180;2024-02-15T08:12:42;13.40;99.90
423;DHT22;198;48.752;9.180;2024-02-15T08:15:08;13.60;99.90
423;DHT22;198;48.752;9.180;2024-02-15T08:17:41;13.70;99.90
423;DHT22;198;48.752;9.180;2024-02-15T08:20:09;14.00;99.90
423;DHT22;198;48.752;9.180;2024-02-15T08:22:35;14.10;99.90
423;DHT22;198;48.752;9.180;2024-02-15T08:25:05;14.10;99.90
423;DHT22;198;48.752;9.180;2024-02-15T08:27:31;14.10;99.90
423;DHT22;198;48.752;9.180;2024-02-15T08:29:58;14.30;99.90
423;DHT22;198;48.752;9.180;2024-02-15T08:32:23;14.40;99.90
423;DHT22;198;48.752;9.180;2024-02-15T08:34:49;14.60;99.90
423;DHT22;198;48.752;9.180;2024-02-15T08:37:15;14.90;99.50
423;DHT22;198;48.752;9.180;2024-02-15T08:39:41;15.00;98.20
423;DHT22;198;48.752;9.180;2024-02-15T08:42:10;15.20;97.00
423;DHT22;198;48.752;9.180;2024-02-15T08:44:35;15.30;95.80
423;DHT22;198;48.752;9.180;2024-02-15T08:47:01;15.40;95.30
423;DHT22;198;48.752;9.180;2024-02-15T08:49:27;15.40;94.70
423;DHT22;198;48.752;9.180;2024-02-15T08:51:56;15.30;94.20
423;DHT22;198;48.752;9.180;2024-02-15T08:54:21;15.10;94.00
423;DHT22;198;48.752;9.180;2024-02-15T08:56:47;15.00;93.70
423;DHT22;198;48.752;9.180;2024-02-15T08:59:12;15.00;93.20
423;DHT22;198;48.752;9.180;2024-02-15T09:01:40;14.90;93.10
423;DHT22;198;48.752;9.180;2024-02-15T09:04:06;15.00;93.60
423;DHT22;198;48.752;9.180;2024-02-15T09:06:31;15.10;93.40
423;DHT22;198;48.752;9.180;2024-02-15T09:08:58;15.50;93.20
423;DHT22;198;48.752;9.180;2024-02-15T09:11:29;16.00;91.50
423;DHT22;198;48.752;9.180;2024-02-15T09:13:54;16.70;90.10
423;DHT22;198;48.752;9.180;2024-02-15T09:16:20;17.50;84.50
423;DHT22;198;48.752;9.180;2024-02-15T09:18:47;18.10;80.30
423;DHT22;198;48.752;9.180;2024-02-15T09:21:12;18.70;75.10
423;DHT22;198;48.752;9.180;2024-02-15T09:23:38;19.50;70.20
423;DHT22;198;48.752;9.180;2024-02-15T09:26:04;19.90;65.60
423;DHT22;198;48.752;9.180;2024-02-15T09:28:29;20.80;64.20
423;DHT22;198;48.752;9.180;2024-02-15T09:30:56;21.90;59.20
423;DHT22;198;48.752;9.180;2024-02-15T09:33:24;22.50;54.80
423;DHT22;198;48.752;9.180;2024-02-15T09:35:51;22.60;52.40
423;DHT22;198;48.752;9.180;2024-02-15T09:38:16;22.90;51.00
423;DHT22;198;48.752;9.180;2024-02-15T09:40:43;23.90;49.60
423;DHT22;198;48.752;9.180;2024-02-15T09:43:09;24.90;47.70
423;DHT22;198;48.752;9.180;2024-02-15T09:45:38;25.50;44.60
423;DHT22;198;48.752;9.180;2024-02-15T09:48:06;25.80;42.90
423;DHT22;198;48.752;9.180;2024-02-15T09:50:35;26.70;41.50
423;DHT22;198;48.752;9.180;2024-02-15T09:53:01;27.50;39.50
423;DHT22;198;48.752;9.180;2024-02-15T09:55:28;27.30;36.70
423;DHT22;198;48.752;9.180;2024-02-15T09:57:55;27.10;36.70
423;DHT22;198;48.752;9.180;2024-02-15T10:00:20;26.90;36.90
423;DHT22;198;48.752;9.180;2024-02-15T10:02:52;27.10;37.00
423;DHT22;198;48.752;9.180;2024-02-15T10:05:18;27.40;35.70
423;DHT22;198;48.752;9.180;2024-02-15T10:07:45;27.80;35.10
423;DHT22;198;48.752;9.180;2024-02-15T10:10:18;29.00;34.80
423;DHT22;198;48.752;9.180;2024-02-15T10:12:46;29.80;33.30
423;DHT22;198;48.752;9.180;2024-02-15T10:15:33;31.30;32.20
423;DHT22;198;48.752;9.180;2024-02-15T10:18:01;32.20;29.40
423;DHT22;198;48.752;9.180;2024-02-15T10:20:27;32.50;28.90
423;DHT22;198;48.752;9.180;2024-02-15T10:23:09;32.60;28.70
423;DHT22;198;48.752;9.180;2024-02-15T10:25:35;32.30;27.70
423;DHT22;198;48.752;9.180;2024-02-15T10:28:08;32.50;27.60
423;DHT22;198;48.752;9.180;2024-02-15T10:30:35;33.00;26.70
423;DHT22;198;48.752;9.180;2024-02-15T10:33:01;32.50;26.30
423;DHT22;198;48.752;9.180;2024-02-15T10:35:27;32.30;26.60
423;DHT22;198;48.752;9.180;2024-02-15T10:38:07;32.20;26.20
423;DHT22;198;48.752;9.180;2024-02-15T10:40:34;32.00;26.80
423;DHT22;198;48.752;9.180;2024-02-15T10:42:59;31.30;27.30
423;DHT22;198;48.752;9.180;2024-02-15T10:45:28;30.60;27.50
423;DHT22;198;48.752;9.180;2024-02-15T10:47:56;30.40;27.90
423;DHT22;198;48.752;9.180;2024-02-15T10:50:23;29.50;28.20
423;DHT22;198;48.752;9.180;2024-02-15T10:52:54;28.90;29.10
423;DHT22;198;48.752;9.180;2024-02-15T10:55:37;28.00;29.30
423;DHT22;198;48.752;9.180;2024-02-15T10:58:05;27.00;30.20
423;DHT22;198;48.752;9.180;2024-02-15T11:00:35;25.70;32.10
423;DHT22;198;48.752;9.180;2024-02-15T11:03:04;24.80;33.20
423;DHT22;198;48.752;9.180;2024-02-15T11:05:36;23.90;34.70
423;DHT22;198;48.752;9.180;2024-02-15T11:08:07;23.10;35.80
423;DHT22;198;48.752;9.180;2024-02-15T11:10:35;22.20;36.90
423;DHT22;198;48.752;9.180;2024-02-15T11:13:02;21.50;38.40
423;DHT22;198;48.752;9.180;2024-02-15T11:18:12;21.30;39.90
423;DHT22;198;48.752;9.180;2024-02-15T11:23:04;20.80;40.80
423;DHT22;198;48.752;9.180;2024-02-15T11:25:39;20.60;41.00
423;DHT22;198;48.752;9.180;2024-02-15T11:30:51;20.50;42.20
423;DHT22;198;48.752;9.180;2024-02-15T11:33:30;20.80;42.80
423;DHT22;198;48.752;9.180;2024-02-15T11:36:05;22.90;41.10
423;DHT22;198;48.752;9.180;2024-02-15T11:38:31;25.00;38.80
423;DHT22;198;48.752;9.180;2024-02-15T11:46:18;30.70;30.30
423;DHT22;198;48.752;9.180;2024-02-15T11:48:48;32.00;28.70
423;DHT22;198;48.752;9.180;2024-02-15T11:54:11;31.40;28.10
423;DHT22;198;48.752;9.180;2024-02-15T11:56:53;31.50;28.20
423;DHT22;198;48.752;9.180;2024-02-15T11:59:42;31.80;27.60
423;DHT22;198;48.752;9.180;2024-02-15T12:02:26;31.70;27.50
423;DHT22;198;48.752;9.180;2024-02-15T12:05:11;31.70;27.30
423;DHT22;198;48.752;9.180;2024-02-15T12:07:55;32.00;26.70
423;DHT22;198;48.752;9.180;2024-02-15T12:10:41;31.40;27.20
423;DHT22;198;48.752;9.180;2024-02-15T12:13:26;30.90;27.70
423;DHT22;198;48.752;9.180;2024-02-15T12:16:09;30.60;28.00
423;DHT22;198;48.752;9.180;2024-02-15T12:18:53;31.00;28.20
423;DHT22;198;48.752;9.180;2024-02-15T12:21:22;32.00;27.30
423;DHT22;198;48.752;9.180;2024-02-15T12:23:49;32.00;26.50
423;DHT22;198;48.752;9.180;2024-02-15T12:26:21;31.10;26.80
423;DHT22;198;48.752;9.180;2024-02-15T12:28:52;30.50;27.40
423;DHT22;198;48.752;9.180;2024-02-15T12:31:24;30.40;28.20
423;DHT22;198;48.752;9.180;2024-02-15T12:34:00;30.20;27.40
423;DHT22;198;48.752;9.180;2024-02-15T12:36:26;29.80;27.40
423;DHT22;198;48.752;9.180;2024-02-15T12:39:01;29.50;27.70
423;DHT22;198;48.752;9.180;2024-02-15T12:41:27;29.00;27.50
423;DHT22;198;48.752;9.180;2024-02-15T12:43:53;28.90;28.70
423;DHT22;198;48.752;9.180;2024-02-15T12:46:19;28.80;28.70
423;DHT22;198;48.752;9.180;2024-02-15T12:48:45;28.60;29.30
423;DHT22;198;48.752;9.180;2024-02-15T12:51:15;28.60;29.70
423;DHT22;198;48.752;9.180;2024-02-15T12:53:41;28.40;29.70
423;DHT22;198;48.752;9.180;2024-02-15T12:56:09;28.10;30.30
423;DHT22;198;48.752;9.180;2024-02-15T12:58:35;28.10;30.40
423;DHT22;198;48.752;9.180;2024-02-15T13:01:01;27.50;30.30
423;DHT22;198;48.752;9.180;2024-02-15T13:03:27;26.70;31.10
423;DHT22;198;48.752;9.180;2024-02-15T13:05:52;25.90;32.40
423;DHT22;198;48.752;9.180;2024-02-15T13:08:18;25.30;33.80
423;DHT22;198;48.752;9.180;2024-02-15T13:10:45;24.90;33.80
423;DHT22;198;48.752;9.180;2024-02-15T13:13:11;24.50;34.20
423;DHT22;198;48.752;9.180;2024-02-15T13:15:36;24.10;34.90
423;DHT22;198;48.752;9.180;2024-02-15T13:18:03;23.70;35.20
423;DHT22;198;48.752;9.180;2024-02-15T13:20:31;23.30;35.40
423;DHT22;198;48.752;9.180;2024-02-15T13:23:02;23.00;36.10
423;DHT22;198;48.752;9.180;2024-02-15T13:25:36;22.60;36.20
423;DHT22;198;48.752;9.180;2024-02-15T13:28:03;22.50;37.40
423;DHT22;198;48.752;9.180;2024-02-15T13:30:29;22.50;37.70
423;DHT22;198;48.752;9.180;2024-02-15T13:32:55;22.30;37.50
423;DHT22;198;48.752;9.180;2024-02-15T13:35:21;22.20;38.20
423;DHT22;198;48.752;9.180;2024-02-15T13:37:50;22.00;38.50
423;DHT22;198;48.752;9.180;2024-02-15T13:40:18;21.90;38.70
423;DHT22;198;48.752;9.180;2024-02-15T13:42:46;21.80;38.80
423;DHT22;198;48.752;9.180;2024-02-15T13:45:18;22.00;39.00
423;DHT22;198;48.752;9.180;2024-02-15T13:47:45;22.40;38.60
423;DHT22;198;48.752;9.180;2024-02-15T13:50:14;22.50;38.60
423;DHT22;198;48.752;9.180;2024-02-15T13:52:44;22.80;38.30
423;DHT22;198;48.752;9.180;2024-02-15T13:55:19;23.40;37.70
423;DHT22;198;48.752;9.180;2024-02-15T13:57:46;23.80;36.60
423;DHT22;198;48.752;9.180;2024-02-15T14:00:16;24.00;36.40
423;DHT22;198;48.752;9.180;2024-02-15T14:02:50;24.10;36.00
423;DHT22;198;48.752;9.180;2024-02-15T14:05:19;24.10;35.90
423;DHT22;198;48.752;9.180;2024-02-15T14:07:49;24.10;35.90
423;DHT22;198;48.752;9.180;2024-02-15T14:10:21;23.60;35.80
423;DHT22;198;48.752;9.180;2024-02-15T14:12:51;23.40;36.60
423;DHT22;198;48.752;9.180;2024-02-15T14:15:21;23.10;36.90
423;DHT22;198;48.752;9.180;2024-02-15T14:17:47;22.80;37.10
423;DHT22;198;48.752;9.180;2024-02-15T14:20:13;22.80;37.80
423;DHT22;198;48.752;9.180;2024-02-15T14:22:50;22.60;37.80
423;DHT22;198;48.752;9.180;2024-02-15T14:25:22;22.60;38.20
423;DHT22;198;48.752;9.180;2024-02-15T14:27:48;22.50;37.90
423;DHT22;198;48.752;9.180;2024-02-15T14:30:14;22.60;38.10
423;DHT22;198;48.752;9.180;2024-02-15T14:32:58;22.60;38.10
423;DHT22;198;48.752;9.180;2024-02-15T14:35:29;22.70;38.10
423;DHT22;198;48.752;9.180;2024-02-15T14:37:56;22.80;38.50
423;DHT22;198;48.752;9.180;2024-02-15T14:40:23;22.60;38.60
423;DHT22;198;48.752;9.180;2024-02-15T14:42:49;22.40;39.00
423;DHT22;198;48.752;9.180;2024-02-15T14:45:15;22.60;39.40
423;DHT22;198;48.752;9.180;2024-02-15T14:47:40;22.60;38.80
423;DHT22;198;48.752;9.180;2024-02-15T14:50:08;22.80;39.20
423;DHT22;198;48.752;9.180;2024-02-15T14:52:36;23.10;39.20
423;DHT22;198;48.752;9.180;2024-02-15T14:55:03;23.40;38.10
423;DHT22;198;48.752;9.180;2024-02-15T14:57:31;23.40;37.80
423;DHT22;198;48.752;9.180;2024-02-15T14:59:57;23.40;38.00
423;DHT22;198;48.752;9.180;2024-02-15T15:02:22;23.20;38.30
423;DHT22;198;48.752;9.180;2024-02-15T15:04:48;23.30;38.70
423;DHT22;198;48.752;9.180;2024-02-15T15:07:32;23.20;38.70
423;DHT22;198;48.752;9.180;2024-02-15T15:10:16;22.70;38.80
423;DHT22;198;48.752;9.180;2024-02-15T15:13:00;22.40;38.90
423;DHT22;198;48.752;9.180;2024-02-15T15:15:25;22.10;39.70
423;DHT22;198;48.752;9.180;2024-02-15T15:17:52;21.80;40.20
423;DHT22;198;48.752;9.180;2024-02-15T15:20:18;21.50;40.50
423;DHT22;198;48.752;9.180;2024-02-15T15:22:45;21.40;41.00
423;DHT22;198;48.752;9.180;2024-02-15T15:25:11;21.30;41.40
423;DHT22;198;48.752;9.180;2024-02-15T15:27:37;21.20;41.50
423;DHT22;198;48.752;9.180;2024-02-15T15:30:04;21.10;41.40
423;DHT22;198;48.752;9.180;2024-02-15T15:32:29;20.90;41.90
423;DHT22;198;48.752;9.180;2024-02-15T15:34:55;20.80;42.30
423;DHT22;198;48.752;9.180;2024-02-15T15:37:21;20.70;42.80
423;DHT22;198;48.752;9.180;2024-02-15T15:39:48;20.40;43.40
423;DHT22;198;48.752;9.180;2024-02-15T15:42:14;20.00;43.90
423;DHT22;198;48.752;9.180;2024-02-15T15:44:40;19.70;44.30
423;DHT22;198;48.752;9.180;2024-02-15T15:47:06;19.50;44.90
423;DHT22;198;48.752;9.180;2024-02-15T15:49:31;19.20;45.60
423;DHT22;198;48.752;9.180;2024-02-15T15:51:57;19.00;45.90
423;DHT22;198;48.752;9.180;2024-02-15T15:54:22;18.80;46.50
423;DHT22;198;48.752;9.180;2024-02-15T15:56:48;18.60;46.50
423;DHT22;198;48.752;9.180;2024-02-15T15:59:13;18.40;47.10
423;DHT22;198;48.752;9.180;2024-02-15T16:01:46;18.20;47.70
423;DHT22;198;48.752;9.180;2024-02-15T16:04:13;18.00;48.00
423;DHT22;198;48.752;9.180;2024-02-15T16:06:38;17.80;48.60
423;DHT22;198;48.752;9.180;2024-02-15T16:09:06;17.60;49.10
423;DHT22;198;48.752;9.180;2024-02-15T16:11:34;17.30;49.60
423;DHT22;198;48.752;9.180;2024-02-15T16:13:59;17.20;50.10
423;DHT22;198;48.752;9.180;2024-02-15T16:16:25;16.90;50.50
423;DHT22;198;48.752;9.180;2024-02-15T16:18:50;16.80;51.20
423;DHT22;198;48.752;9.180;2024-02-15T16:21:16;16.60;51.60
423;DHT22;198;48.752;9.180;2024-02-15T16:23:42;16.50;52.20
423;DHT22;198;48.752;9.180;2024-02-15T16:26:08;16.30;52.90
423;DHT22;198;48.752;9.180;2024-02-15T16:28:33;16.20;53.30
423;DHT22;198;48.752;9.180;2024-02-15T16:30:59;16.10;53.90
423;DHT22;198;48.752;9.180;2024-02-15T16:33:24;15.90;54.60
423;DHT22;198;48.752;9.180;2024-02-15T16:35:50;15.80;55.30
423;DHT22;198;48.752;9.180;2024-02-15T16:38:16;15.60;55.80
423;DHT22;198;48.752;9.180;2024-02-15T16:40:44;15.50;56.60
423;DHT22;198;48.752;9.180;2024-02-15T16:43:10;15.40;57.20
423;DHT22;198;48.752;9.180;2024-02-15T16:45:35;15.30;57.60
423;DHT22;198;48.752;9.180;2024-02-15T16:48:02;15.20;58.40
423;DHT22;198;48.752;9.180;2024-02-15T16:50:29;15.10;59.00
423;DHT22;198;48.752;9.180;2024-02-15T16:52:56;15.00;59.30
423;DHT22;198;48.752;9.180;2024-02-15T16:55:21;15.00;59.90
423;DHT22;198;48.752;9.180;2024-02-15T16:57:56;14.90;61.00
423;DHT22;198;48.752;9.180;2024-02-15T17:00:28;14.80;61.90